Time;durP1;ratioP1;P1;durP2;ratioP2;P2;SDS_P1;SDS_P2;PMS_P1;PMS_P2;Temp;Humidity;BMP_temperature;BMP_pressure;BME280_temperature;BME280_humidity;BME280_pressure;Samples;Min_cycle;Max_cycle;Signal;HPM_P1;HPM_P2
2021/10/14 00:00:47;;;;;;;11.60;6.30;;;9.60;99.90;;;;;;5047585;28;20391;-83
2021/10/14 00:03:12;;;;;;;9.32;5.82;;;9.50;99.90;;;;;;5050408;28;20387;-83
2021/10/14 00:05:38;;;;;;;11.15;6.75;;;9.50;99.90;;;;;;5049013;28;20462;-83
2021/10/14 00:08:11;;;;;;;10.40;6.40;;;9.50;99.90;;;;;;5050978;28;20384;-85
2021/10/14 00:10:37;;;;;;;8.95;6.20;;;9.60;99.90;;;;;;5050010;28;20899;-81
2021/10/14 00:13:04;;;;;;;6.88;5.90;;;9.60;99.90;;;;;;5046688;28;20459;-85
2021/10/14 00:15:33;;;;;;;11.48;6.63;;;9.60;99.90;;;;;;5049837;28;20391;-86
2021/10/14 00:18:00;;;;;;;11.85;7.30;;;9.60;99.90;;;;;;5048729;28;20443;-83
2021/10/14 00:20:26;;;;;;;9.65;6.72;;;9.60;99.90;;;;;;5047538;28;20924;-83
2021/10/14 00:22:52;;;;;;;10.13;6.13;;;9.70;99.90;;;;;;5047988;28;20380;-84
2021/10/14 00:25:22;;;;;;;9.10;6.05;;;9.70;99.90;;;;;;5047896;28;20418;-81
2021/10/14 00:27:48;;;;;;;8.77;6.22;;;9.70;99.90;;;;;;5049184;28;20391;-81
2021/10/14 00:30:14;;;;;;;8.63;6.20;;;9.70;99.90;;;;;;5048796;28;20479;-82
2021/10/14 00:32:40;;;;;;;11.93;7.00;;;9.70;99.90;;;;;;5050165;28;20392;-82
2021/10/14 00:35:06;;;;;;;9.93;6.40;;;9.60;99.90;;;;;;5048964;28;20403;-82
2021/10/14 00:37:32;;;;;;;9.13;6.10;;;9.60;99.90;;;;;;5049271;28;20403;-82
2021/10/14 00:39:57;;;;;;;9.55;5.68;;;9.70;99.90;;;;;;5046435;28;20870;-82
2021/10/14 00:42:23;;;;;;;9.85;5.90;;;9.70;99.90;;;;;;5048702;28;20399;-82
2021/10/14 00:44:55;;;;;;;11.15;6.82;;;9.80;99.90;;;;;;5047461;28;20433;-83
2021/10/14 00:47:25;;;;;;;10.88;7.05;;;9.70;99.90;;;;;;5048005;28;20383;-82
2021/10/14 00:49:52;;;;;;;12.55;7.43;;;9.70;99.90;;;;;;5046313;28;20388;-82
2021/10/14 00:52:18;;;;;;;14.82;8.18;;;9.80;99.90;;;;;;5045688;28;20391;-82
2021/10/14 00:54:46;;;;;;;11.73;7.30;;;9.80;99.90;;;;;;5047729;28;20454;-82
2021/10/14 00:57:12;;;;;;;10.95;7.57;;;9.90;99.90;;;;;;5037088;28;20978;-82
2021/10/14 00:59:39;;;;;;;12.82;8.18;;;9.90;99.90;;;;;;5032243;28;20391;-83
2021/10/14 01:02:05;;;;;;;10.48;7.85;;;9.90;99.90;;;;;;5047915;28;20466;-83
2021/10/14 01:04:37;;;;;;;9.82;7.18;;;9.90;99.90;;;;;;5046910;28;20372;-85
2021/10/14 01:07:09;;;;;;;10.50;7.20;;;10.00;99.90;;;;;;5050743;28;20387;-84
2021/10/14 01:09:35;;;;;;;12.13;7.32;;;10.00;99.90;;;;;;5051591;28;20376;-84
2021/10/14 01:12:02;;;;;;;11.63;6.43;;;9.90;99.90;;;;;;5047822;28;20399;-83
2021/10/14 01:14:28;;;;;;;11.35;7.78;;;9.90;99.90;;;;;;5048164;28;20396;-83
2021/10/14 01:16:54;;;;;;;10.10;6.88;;;9.90;99.90;;;;;;5047991;28;20415;-83
2021/10/14 01:19:19;;;;;;;11.73;6.90;;;9.90;99.90;;;;;;5048448;28;20388;-84
2021/10/14 01:21:48;;;;;;;8.98;6.55;;;10.00;99.90;;;;;;5048686;28;20395;-83
2021/10/14 01:24:14;;;;;;;8.83;6.60;;;9.90;99.90;;;;;;5049361;28;20379;-84
2021/10/14 01:26:40;;;;;;;12.53;7.03;;;9.90;99.90;;;;;;5049787;28;20440;-83
2021/10/14 01:29:06;;;;;;;14.13;7.55;;;10.00;99.90;;;;;;5049141;28;20391;-83
2021/10/14 01:31:32;;;;;;;12.55;6.90;;;9.90;99.90;;;;;;5049579;28;20398;-83
2021/10/14 01:33:58;;;;;;;10.95;6.82;;;9.90;99.90;;;;;;5049441;28;20387;-84
2021/10/14 01:36:24;;;;;;;9.75;6.75;;;10.00;99.90;;;;;;5048442;28;20403;-83
2021/10/14 01:38:50;;;;;;;12.37;7.40;;;10.00;99.90;;;;;;5049114;28;20889;-84
2021/10/14 01:41:16;;;;;;;12.03;6.57;;;9.90;99.90;;;;;;5048161;28;20390;-83
2021/10/14 01:43:42;;;;;;;13.65;7.75;;;9.90;99.90;;;;;;5049576;28;20384;-83
2021/10/14 01:46:09;;;;;;;13.98;7.70;;;9.80;99.90;;;;;;5048443;28;20384;-84
2021/10/14 01:48:34;;;;;;;13.07;7.95;;;9.80;99.90;;;;;;5046986;28;20392;-83
2021/10/14 01:51:01;;;;;;;10.90;6.80;;;9.70;99.90;;;;;;5048916;28;20398;-84
2021/10/14 01:53:27;;;;;;;13.10;7.70;;;9.90;99.90;;;;;;5048382;28;20388;-83
2021/10/14 01:55:53;;;;;;;13.35;7.95;;;9.80;99.90;;;;;;5048188;28;20404;-84
2021/10/14 01:58:20;;;;;;;12.88;7.90;;;9.80;99.90;;;;;;5048636;28;20396;-84
2021/10/14 02:00:49;;;;;;;11.65;8.13;;;9.80;99.90;;;;;;5048359;28;20387;-84
2021/10/14 02:03:15;;;;;;;14.15;8.38;;;9.80;99.90;;;;;;5048699;28;20396;-84
2021/10/14 02:05:41;;;;;;;13.15;7.97;;;9.80;99.90;;;;;;5049111;28;20360;-84
2021/10/14 02:08:06;;;;;;;9.30;7.37;;;9.70;99.90;;;;;;5047990;28;20889;-84
2021/10/14 02:10:32;;;;;;;15.00;7.97;;;9.80;99.90;;;;;;5047510;28;20479;-85
2021/10/14 02:12:58;;;;;;;11.77;6.90;;;9.80;99.90;;;;;;5048790;28;20466;-85
2021/10/14 02:15:24;;;;;;;9.52;6.43;;;9.80;99.90;;;;;;5047012;28;20387;-84
2021/10/14 02:17:50;;;;;;;12.85;6.88;;;9.80;99.90;;;;;;5048485;28;20376;-84
2021/10/14 02:20:16;;;;;;;12.63;6.90;;;9.70;99.90;;;;;;5048942;28;20465;-85
2021/10/14 02:22:42;;;;;;;11.07;7.22;;;9.70;99.90;;;;;;5048734;28;20396;-83
2021/10/14 02:25:10;;;;;;;12.43;6.82;;;9.70;99.90;;;;;;5047181;28;20388;-84
2021/10/14 02:27:36;;;;;;;10.85;6.43;;;9.60;99.90;;;;;;5048782;28;20442;-84
2021/10/14 02:30:03;;;;;;;9.35;6.07;;;9.60;99.90;;;;;;5049774;28;20424;-84
2021/10/14 02:32:29;;;;;;;9.43;6.90;;;9.60;99.90;;;;;;5047428;28;20407;-84
2021/10/14 02:34:57;;;;;;;12.38;6.47;;;9.70;99.90;;;;;;5050300;28;20889;-83
2021/10/14 02:37:23;;;;;;;11.57;6.75;;;9.60;99.90;;;;;;5047703;28;20897;-83
2021/10/14 02:39:48;;;;;;;12.13;6.70;;;9.60;99.90;;;;;;5049392;28;20384;-84
2021/10/14 02:42:14;;;;;;;10.98;6.32;;;9.60;99.90;;;;;;5049720;28;20376;-83
2021/10/14 02:44:40;;;;;;;10.30;6.95;;;9.50;99.90;;;;;;5049685;28;20388;-84
2021/10/14 02:47:05;;;;;;;11.17;6.30;;;9.40;99.90;;;;;;5048753;28;20425;-84
2021/10/14 02:49:31;;;;;;;10.37;6.40;;;9.50;99.90;;;;;;5047883;28;20479;-84
2021/10/14 02:51:56;;;;;;;8.48;6.95;;;9.60;99.90;;;;;;5049058;28;20382;-83
2021/10/14 02:54:22;;;;;;;12.57;7.33;;;9.60;99.90;;;;;;5050371;28;20387;-84
2021/10/14 02:56:47;;;;;;;12.45;7.15;;;9.60;99.90;;;;;;5051068;28;20831;-84
2021/10/14 02:59:13;;;;;;;12.03;7.93;;;9.60;99.90;;;;;;5051833;28;20738;-83
2021/10/14 03:01:39;;;;;;;12.87;7.80;;;9.50;99.90;;;;;;5049799;28;20383;-82
2021/10/14 03:04:04;;;;;;;9.07;7.07;;;9.50;99.90;;;;;;5050807;28;20434;-83
2021/10/14 03:06:30;;;;;;;10.63;7.27;;;9.50;99.90;;;;;;5051134;28;20445;-82
2021/10/14 03:08:55;;;;;;;9.43;7.10;;;9.60;99.90;;;;;;5052272;28;20473;-84
2021/10/14 03:11:21;;;;;;;9.35;7.18;;;9.60;99.90;;;;;;5051814;28;20441;-83
2021/10/14 03:13:47;;;;;;;12.60;7.60;;;9.60;99.90;;;;;;5052530;28;20372;-83
2021/10/14 03:16:12;;;;;;;9.53;6.80;;;9.60;99.90;;;;;;5052038;28;20935;-83
2021/10/14 03:18:38;;;;;;;9.25;6.53;;;9.70;99.90;;;;;;5052040;28;20383;-83
2021/10/14 03:21:04;;;;;;;8.00;7.20;;;9.70;99.90;;;;;;5052309;28;20423;-83
2021/10/14 03:23:29;;;;;;;8.23;7.30;;;9.70;99.90;;;;;;5050708;28;20407;-83
2021/10/14 03:25:55;;;;;;;10.23;7.30;;;9.70;99.90;;;;;;5052059;28;20406;-83
2021/10/14 03:28:21;;;;;;;10.55;8.00;;;9.70;99.90;;;;;;5051522;28;20394;-84
2021/10/14 03:30:46;;;;;;;9.07;7.37;;;9.80;99.90;;;;;;5052664;28;20379;-83
2021/10/14 03:33:12;;;;;;;10.67;8.37;;;9.80;99.90;;;;;;5050708;28;20797;-84
2021/10/14 03:35:37;;;;;;;10.52;8.20;;;9.70;99.90;;;;;;5051075;28;20399;-83
2021/10/14 03:38:03;;;;;;;9.97;8.87;;;9.70;99.90;;;;;;5051792;28;20470;-83
2021/10/14 03:40:29;;;;;;;10.83;9.60;;;9.70;99.90;;;;;;5050713;28;20911;-84
2021/10/14 03:42:55;;;;;;;11.02;9.93;;;9.70;99.90;;;;;;5052321;28;20379;-83
2021/10/14 03:45:20;;;;;;;12.10;10.80;;;9.70;99.90;;;;;;5050789;28;20388;-83
2021/10/14 03:47:46;;;;;;;11.07;9.85;;;9.70;99.90;;;;;;5051521;28;20885;-83
2021/10/14 03:50:12;;;;;;;14.43;11.23;;;9.70;99.90;;;;;;5049815;28;20387;-84
2021/10/14 03:52:38;;;;;;;14.07;10.60;;;9.70;99.90;;;;;;5050238;28;20470;-83
2021/10/14 03:55:05;;;;;;;11.83;10.27;;;9.70;99.90;;;;;;5051408;28;20394;-84
2021/10/14 03:57:31;;;;;;;13.70;10.27;;;9.70;99.90;;;;;;5050172;28;20881;-84
2021/10/14 03:59:56;;;;;;;11.30;9.40;;;9.70;99.90;;;;;;5049598;28;20415;-84
2021/10/14 04:02:22;;;;;;;10.60;9.50;;;9.70;99.90;;;;;;5050351;28;20372;-83
2021/10/14 04:04:47;;;;;;;10.65;9.60;;;9.70;99.90;;;;;;5051444;28;20399;-83
2021/10/14 04:07:13;;;;;;;11.63;8.83;;;9.70;99.90;;;;;;5050396;28;20965;-83
2021/10/14 04:09:39;;;;;;;11.20;9.80;;;9.80;99.90;;;;;;5051729;28;20383;-84
2021/10/14 04:12:04;;;;;;;11.45;9.18;;;9.70;99.90;;;;;;5051062;28;20741;-83
2021/10/14 04:14:30;;;;;;;10.47;9.47;;;9.80;99.90;;;;;;5053801;28;20511;-83
2021/10/14 04:16:56;;;;;;;10.97;9.77;;;9.80;99.90;;;;;;5051861;28;20443;-84
2021/10/14 04:19:21;;;;;;;11.90;10.23;;;9.80;99.90;;;;;;5050878;28;20395;-85
2021/10/14 04:21:48;;;;;;;11.77;10.57;;;9.70;99.90;;;;;;5051894;28;20376;-83
2021/10/14 04:24:18;;;;;;;12.13;10.63;;;9.70;99.90;;;;;;5049657;28;20898;-83
2021/10/14 04:26:44;;;;;;;11.35;10.07;;;9.70;99.90;;;;;;5050231;28;20999;-83
2021/10/14 04:29:10;;;;;;;10.85;9.75;;;9.70;99.90;;;;;;5050361;28;20873;-84
2021/10/14 04:31:36;;;;;;;11.82;10.05;;;9.80;99.90;;;;;;5051098;28;20388;-83
2021/10/14 04:34:02;;;;;;;11.38;10.18;;;9.90;99.90;;;;;;5050827;28;20396;-84
2021/10/14 04:36:28;;;;;;;11.40;10.30;;;9.90;99.90;;;;;;5050621;28;20400;-83
2021/10/14 04:38:55;;;;;;;12.23;10.38;;;10.00;99.90;;;;;;5052058;28;20376;-84
2021/10/14 04:41:20;;;;;;;11.32;10.13;;;10.00;99.90;;;;;;5051514;28;20388;-84
2021/10/14 04:43:47;;;;;;;11.60;10.37;;;10.00;99.90;;;;;;5051159;28;20372;-84
2021/10/14 04:46:13;;;;;;;11.15;10.07;;;10.00;99.90;;;;;;5050378;28;20386;-84
2021/10/14 04:48:38;;;;;;;11.90;10.60;;;10.00;99.90;;;;;;5050748;28;20384;-83
2021/10/14 04:51:04;;;;;;;12.03;9.83;;;10.00;99.90;;;;;;5050227;28;20391;-84
2021/10/14 04:53:29;;;;;;;11.98;10.05;;;10.00;99.90;;;;;;5050278;28;20937;-84
2021/10/14 04:55:55;;;;;;;10.23;9.23;;;10.00;99.90;;;;;;5049888;28;20767;-84
2021/10/14 04:58:21;;;;;;;11.43;9.70;;;10.00;99.90;;;;;;5050322;28;20375;-84
2021/10/14 05:00:46;;;;;;;11.07;9.73;;;10.00;99.90;;;;;;5048164;28;20394;-83
2021/10/14 05:03:12;;;;;;;10.15;9.00;;;10.00;99.90;;;;;;5050370;28;20482;-84
2021/10/14 05:05:38;;;;;;;10.97;9.87;;;10.00;99.90;;;;;;5049510;28;20482;-84
2021/10/14 05:08:03;;;;;;;12.05;10.85;;;10.00;99.90;;;;;;5050121;28;20387;-84
2021/10/14 05:10:31;;;;;;;12.45;10.63;;;9.90;99.90;;;;;;5048561;28;20902;-84
2021/10/14 05:12:56;;;;;;;11.45;10.25;;;9.90;99.90;;;;;;5048400;28;20429;-84
2021/10/14 05:15:22;;;;;;;12.48;11.18;;;10.00;99.90;;;;;;5049543;28;20391;-84
2021/10/14 05:17:47;;;;;;;13.10;11.80;;;10.10;99.90;;;;;;5049302;28;20494;-84
2021/10/14 05:20:13;;;;;;;13.00;11.70;;;10.10;99.90;;;;;;5049771;28;20457;-84
2021/10/14 05:22:39;;;;;;;13.65;12.27;;;10.10;99.90;;;;;;5050050;28;20378;-84
2021/10/14 05:25:05;;;;;;;13.60;12.20;;;10.10;99.90;;;;;;5049651;28;20380;-84
2021/10/14 05:27:30;;;;;;;13.87;12.47;;;10.10;99.90;;;;;;5049508;28;20884;-84
2021/10/14 05:29:56;;;;;;;15.73;13.77;;;10.20;99.90;;;;;;5048864;28;20391;-84
2021/10/14 05:32:21;;;;;;;15.82;14.20;;;10.20;99.90;;;;;;5047380;28;20395;-84
2021/10/14 05:34:47;;;;;;;17.17;14.97;;;10.10;99.90;;;;;;5050243;28;20385;-85
2021/10/14 05:37:12;;;;;;;17.08;15.27;;;10.00;99.90;;;;;;5082732;28;20404;-85
2021/10/14 05:39:38;;;;;;;16.43;14.80;;;10.00;99.90;;;;;;5050229;28;20836;-84
2021/10/14 05:42:03;;;;;;;16.47;14.77;;;10.10;99.90;;;;;;5049407;28;20793;-84
2021/10/14 05:44:29;;;;;;;16.73;15.00;;;10.10;99.90;;;;;;5049228;28;20430;-84
2021/10/14 05:46:55;;;;;;;17.07;15.37;;;10.20;99.90;;;;;;5047431;28;20411;-85
2021/10/14 05:49:20;;;;;;;16.45;14.85;;;10.20;99.90;;;;;;5048518;28;20723;-84
2021/10/14 05:51:46;;;;;;;17.67;15.70;;;10.20;99.90;;;;;;5048865;28;20402;-84
2021/10/14 05:54:11;;;;;;;17.00;15.27;;;10.20;99.90;;;;;;5049868;28;20433;-84
2021/10/14 05:56:37;;;;;;;17.20;15.35;;;10.20;99.90;;;;;;5049840;28;20403;-84
2021/10/14 05:59:02;;;;;;;16.93;15.10;;;10.20;99.90;;;;;;5048034;28;20399;-85
2021/10/14 06:01:28;;;;;;;15.95;14.27;;;10.30;99.90;;;;;;5047186;28;20371;-84
2021/10/14 06:03:54;;;;;;;14.60;13.20;;;10.30;99.90;;;;;;5048902;28;20384;-84
2021/10/14 06:06:20;;;;;;;14.07;12.68;;;10.40;99.90;;;;;;5047109;28;20419;-84
2021/10/14 06:08:46;;;;;;;13.88;12.48;;;10.40;99.90;;;;;;5049034;28;20454;-84
2021/10/14 06:11:13;;;;;;;14.25;12.57;;;10.40;99.90;;;;;;5049416;28;20798;-84
2021/10/14 06:13:39;;;;;;;13.90;12.55;;;10.40;99.90;;;;;;5049405;28;20391;-84
2021/10/14 06:16:05;;;;;;;14.20;12.70;;;10.50;99.90;;;;;;5048010;28;20415;-84
2021/10/14 06:18:31;;;;;;;14.40;12.38;;;10.40;99.90;;;;;;5048288;28;20379;-84
2021/10/14 06:20:57;;;;;;;13.80;12.40;;;10.50;99.90;;;;;;5048286;28;20383;-83
2021/10/14 06:23:22;;;;;;;13.93;12.52;;;10.60;99.90;;;;;;5047641;28;20724;-85
2021/10/14 06:25:48;;;;;;;14.23;12.93;;;10.60;99.90;;;;;;5047559;28;20380;-85
2021/10/14 06:28:14;;;;;;;14.70;12.73;;;10.60;99.90;;;;;;5048643;28;21219;-84
2021/10/14 06:30:39;;;;;;;13.73;12.43;;;10.60;99.90;;;;;;5048627;28;20430;-85
2021/10/14 06:33:05;;;;;;;13.50;12.20;;;10.60;99.90;;;;;;5048137;28;20750;-84
2021/10/14 06:35:30;;;;;;;13.65;12.27;;;10.70;99.90;;;;;;5048223;28;20395;-84
2021/10/14 06:37:58;;;;;;;14.17;12.70;;;10.70;99.90;;;;;;5048541;28;20396;-84
2021/10/14 06:40:24;;;;;;;14.73;13.23;;;10.80;99.90;;;;;;5047549;28;20953;-85
2021/10/14 06:42:49;;;;;;;15.70;14.05;;;10.80;99.90;;;;;;5050742;28;20392;-85
2021/10/14 06:45:15;;;;;;;14.53;13.13;;;10.80;99.90;;;;;;5051783;28;20441;-83
2021/10/14 06:47:41;;;;;;;15.03;13.53;;;10.80;99.90;;;;;;5052305;28;20383;-84
2021/10/14 06:50:07;;;;;;;14.00;12.68;;;10.80;99.90;;;;;;5051508;28;20437;-84
2021/10/14 06:52:33;;;;;;;14.35;12.95;;;10.90;99.90;;;;;;5052072;28;20383;-84
2021/10/14 06:54:59;;;;;;;14.70;13.20;;;11.00;99.90;;;;;;5052395;28;20790;-84
2021/10/14 06:57:25;;;;;;;13.77;12.38;;;11.10;99.90;;;;;;5052762;28;20411;-84
2021/10/14 06:59:51;;;;;;;14.98;13.18;;;11.20;99.90;;;;;;5052563;28;20384;-85
2021/10/14 07:02:17;;;;;;;13.57;12.17;;;11.20;99.90;;;;;;5052312;28;20410;-84
2021/10/14 07:04:43;;;;;;;15.77;13.50;;;11.30;99.90;;;;;;5049966;28;20391;-84
2021/10/14 07:07:08;;;;;;;14.65;12.88;;;11.20;99.90;;;;;;5052423;28;20390;-84
2021/10/14 07:09:34;;;;;;;14.40;12.57;;;11.30;99.90;;;;;;5051904;28;20390;-84
2021/10/14 07:12:05;;;;;;;15.67;13.37;;;11.40;99.90;;;;;;5052420;28;20387;-84
2021/10/14 07:14:31;;;;;;;14.98;13.27;;;11.50;99.90;;;;;;5050906;28;20756;-84
2021/10/14 07:16:56;;;;;;;16.73;13.90;;;11.50;99.90;;;;;;5052341;28;20484;-84
2021/10/14 07:19:22;;;;;;;15.80;13.87;;;11.50;99.90;;;;;;5051189;28;20482;-84
2021/10/14 07:21:48;;;;;;;16.27;14.10;;;11.50;99.90;;;;;;5050624;28;20792;-84
2021/10/14 07:24:14;;;;;;;15.53;13.77;;;11.50;99.90;;;;;;5050255;28;20391;-84
2021/10/14 07:26:40;;;;;;;17.17;12.88;;;11.60;99.90;;;;;;5051137;28;20399;-84
2021/10/14 07:29:06;;;;;;;17.35;14.02;;;11.60;99.90;;;;;;5051970;28;20396;-84
2021/10/14 07:31:32;;;;;;;15.30;13.70;;;11.60;99.90;;;;;;5051833;28;20394;-85
2021/10/14 07:33:58;;;;;;;16.50;14.15;;;11.60;99.90;;;;;;5051459;28;20384;-85
2021/10/14 07:36:23;;;;;;;16.40;13.98;;;11.60;99.90;;;;;;5050954;28;20998;-85
2021/10/14 07:38:49;;;;;;;15.40;13.32;;;11.60;99.90;;;;;;5050014;28;20554;-84
2021/10/14 07:41:15;;;;;;;16.33;13.20;;;11.60;99.90;;;;;;5051136;28;20384;-85
2021/10/14 07:43:40;;;;;;;19.10;14.17;;;11.70;99.90;;;;;;5051462;28;20368;-85
2021/10/14 07:46:09;;;;;;;15.23;13.63;;;11.80;99.90;;;;;;5050872;28;20391;-85
2021/10/14 07:48:36;;;;;;;17.35;13.85;;;11.70;99.90;;;;;;5050614;28;20388;-85
2021/10/14 07:51:02;;;;;;;19.02;14.63;;;11.70;99.90;;;;;;5049657;28;20392;-85
2021/10/14 07:53:28;;;;;;;16.05;14.25;;;11.70;99.90;;;;;;5049631;28;20383;-85
2021/10/14 07:55:53;;;;;;;15.02;12.93;;;11.90;99.90;;;;;;5051165;28;20380;-85
2021/10/14 07:58:19;;;;;;;14.63;12.77;;;12.00;99.90;;;;;;5051366;28;21010;-84
2021/10/14 08:00:44;;;;;;;14.50;12.00;;;12.00;99.90;;;;;;5051417;28;20403;-84
2021/10/14 08:03:10;;;;;;;15.63;12.97;;;12.00;99.90;;;;;;5050111;28;20449;-85
2021/10/14 08:05:37;;;;;;;13.98;12.52;;;11.90;99.90;;;;;;5050776;28;20391;-85
2021/10/14 08:08:04;;;;;;;15.07;12.13;;;11.90;99.90;;;;;;5049599;28;20747;-85
2021/10/14 08:10:31;;;;;;;17.70;12.07;;;12.10;99.90;;;;;;5049927;28;20384;-84
2021/10/14 08:12:56;;;;;;;12.23;10.93;;;12.20;99.90;;;;;;5051128;28;20424;-85
2021/10/14 08:15:22;;;;;;;12.87;11.50;;;12.40;99.90;;;;;;5050975;28;20403;-84
2021/10/14 08:17:48;;;;;;;11.95;10.75;;;12.60;99.90;;;;;;5050796;28;20404;-84
2021/10/14 08:20:13;;;;;;;12.30;10.90;;;12.70;99.90;;;;;;5050697;28;20395;-85
2021/10/14 08:22:39;;;;;;;12.07;9.97;;;12.80;99.90;;;;;;5049704;28;20468;-85
2021/10/14 08:25:12;;;;;;;11.43;9.90;;;12.90;99.90;;;;;;5050481;28;20410;-85
2021/10/14 08:27:38;;;;;;;9.75;8.75;;;12.90;99.90;;;;;;5050557;28;20742;-85
2021/10/14 08:30:06;;;;;;;11.57;9.20;;;12.90;99.90;;;;;;5048604;28;20483;-84
2021/10/14 08:32:32;;;;;;;10.60;9.50;;;12.80;99.90;;;;;;5050775;28;20379;-84
2021/10/14 08:34:58;;;;;;;10.60;9.60;;;12.80;99.90;;;;;;5049994;28;20380;-85
2021/10/14 08:37:23;;;;;;;11.32;10.15;;;12.80;99.90;;;;;;5050321;28;20461;-85
2021/10/14 08:39:51;;;;;;;11.50;9.90;;;12.80;99.90;;;;;;5049671;28;20441;-84
2021/10/14 08:42:17;;;;;;;11.15;10.05;;;12.80;99.90;;;;;;5049001;28;20383;-84
2021/10/14 08:44:42;;;;;;;9.93;8.93;;;12.90;99.90;;;;;;5046406;28;20743;-84
2021/10/14 08:47:12;;;;;;;11.17;9.50;;;13.00;99.90;;;;;;5050659;28;21108;-85
2021/10/14 08:49:41;;;;;;;10.90;9.83;;;13.10;99.90;;;;;;5050435;28;20506;-85
2021/10/14 08:52:07;;;;;;;12.00;10.80;;;13.10;99.90;;;;;;5037175;28;20384;-85
2021/10/14 08:54:32;;;;;;;11.40;10.30;;;13.00;99.90;;;;;;5048269;28;20757;-84
2021/10/14 08:56:59;;;;;;;11.67;10.47;;;13.00;99.90;;;;;;5046245;28;20404;-85
2021/10/14 08:59:25;;;;;;;12.68;10.60;;;13.00;99.90;;;;;;5047164;28;20380;-85
2021/10/14 09:02:10;;;;;;;11.05;9.93;;;13.10;99.90;;;;;;5047482;28;20888;-85
2021/10/14 09:04:39;;;;;;;9.88;8.98;;;13.20;99.90;;;;;;5048538;28;20388;-84
2021/10/14 09:07:16;;;;;;;8.90;8.02;;;13.20;99.90;;;;;;5047395;28;20379;-85
2021/10/14 09:09:43;;;;;;;8.75;7.95;;;13.20;99.90;;;;;;5048418;28;20437;-85
2021/10/14 09:12:11;;;;;;;8.45;7.65;;;13.30;99.90;;;;;;5047012;28;20375;-84
2021/10/14 09:14:57;;;;;;;8.55;7.70;;;13.30;99.90;;;;;;5047801;28;20372;-85
2021/10/14 09:17:41;;;;;;;7.60;6.90;;;13.40;99.90;;;;;;5047869;28;20407;-86
2021/10/14 09:20:29;;;;;;;8.00;7.20;;;13.50;99.90;;;;;;5046909;28;20400;-84
2021/10/14 09:23:07;;;;;;;6.85;6.25;;;13.40;99.90;;;;;;5047918;28;20453;-84
2021/10/14 09:25:47;;;;;;;7.70;6.90;;;13.50;99.90;;;;;;5048502;28;20395;-84
2021/10/14 09:28:18;;;;;;;6.78;6.18;;;13.60;99.90;;;;;;5048157;28;20368;-86
2021/10/14 09:31:02;;;;;;;6.00;5.50;;;13.50;99.90;;;;;;5048176;28;20392;-83
2021/10/14 09:33:35;;;;;;;6.68;6.07;;;13.60;99.90;;;;;;5047912;28;20390;-85
2021/10/14 09:36:22;;;;;;;6.60;5.30;;;13.60;99.90;;;;;;5047706;28;20412;-83
2021/10/14 09:39:06;;;;;;;5.30;4.90;;;13.60;99.90;;;;;;5046702;28;20376;-84
2021/10/14 09:41:42;;;;;;;5.88;5.30;;;13.40;99.90;;;;;;5047962;28;20470;-84
2021/10/14 09:44:18;;;;;;;5.03;4.60;;;13.50;99.90;;;;;;5050400;28;20402;-84
2021/10/14 09:46:50;;;;;;;4.60;4.20;;;13.50;99.90;;;;;;5030370;28;20732;-85
2021/10/14 09:49:28;;;;;;;4.43;4.13;;;13.70;99.90;;;;;;5030279;28;20465;-85
2021/10/14 09:51:56;;;;;;;5.60;4.30;;;13.70;99.90;;;;;;5029914;28;20752;-84
2021/10/14 09:54:23;;;;;;;4.80;4.40;;;13.70;99.90;;;;;;5030743;28;20832;-84
2021/10/14 09:56:49;;;;;;;3.60;3.30;;;13.70;99.90;;;;;;5062293;28;20401;-84
2021/10/14 09:59:16;;;;;;;5.50;4.93;;;13.70;99.90;;;;;;5034877;28;21111;-84
2021/10/14 10:01:41;;;;;;;2.83;2.58;;;13.60;99.90;;;;;;5050592;28;20888;-84
2021/10/14 10:04:08;;;;;;;2.85;2.58;;;13.60;99.90;;;;;;5050508;28;20395;-84
2021/10/14 10:06:36;;;;;;;3.20;2.80;;;13.70;99.90;;;;;;5039090;28;20375;-85
2021/10/14 10:09:18;;;;;;;3.10;2.80;;;13.70;99.90;;;;;;5049374;28;20380;-85
2021/10/14 10:11:48;;;;;;;3.22;2.92;;;13.70;99.90;;;;;;5049813;28;20869;-84
2021/10/14 10:14:15;;;;;;;2.03;1.50;;;13.90;99.90;;;;;;5048078;28;20395;-84
2021/10/14 10:17:00;;;;;;;1.77;1.40;;;13.80;99.90;;;;;;5049166;28;20407;-84
2021/10/14 10:19:47;;;;;;;1.50;1.40;;;13.80;99.90;;;;;;5049603;28;20376;-83
2021/10/14 10:22:35;;;;;;;1.38;1.27;;;13.90;99.90;;;;;;5049916;28;20426;-85
2021/10/14 10:25:24;;;;;;;1.52;1.08;;;13.80;99.90;;;;;;5050377;28;20379;-83
2021/10/14 10:27:52;;;;;;;1.27;1.17;;;13.70;99.90;;;;;;5049188;28;20585;-85
2021/10/14 10:30:37;;;;;;;1.48;1.38;;;13.70;99.90;;;;;;5040075;28;20384;-84
2021/10/14 10:33:04;;;;;;;1.10;1.10;;;13.60;99.90;;;;;;5046662;28;20850;-84
2021/10/14 10:35:46;;;;;;;1.80;1.50;;;13.70;99.90;;;;;;5044961;28;20433;-83
2021/10/14 10:38:23;;;;;;;1.92;1.77;;;13.70;99.90;;;;;;5045583;28;20501;-84
2021/10/14 10:40:52;;;;;;;2.93;1.70;;;13.70;99.90;;;;;;5044728;28;20426;-83
2021/10/14 10:43:26;;;;;;;2.40;2.20;;;13.60;99.90;;;;;;5044798;28;20391;-84
2021/10/14 10:45:54;;;;;;;2.60;2.30;;;13.60;99.90;;;;;;5041641;28;20414;-83
2021/10/14 10:48:32;;;;;;;4.40;3.15;;;13.60;99.90;;;;;;5038166;28;20371;-84
2021/10/14 10:50:58;;;;;;;3.30;3.00;;;13.60;99.90;;;;;;5047294;28;20443;-84
2021/10/14 10:53:45;;;;;;;4.10;3.40;;;13.70;99.90;;;;;;5048436;28;20480;-83
2021/10/14 10:56:30;;;;;;;4.85;4.35;;;13.80;99.90;;;;;;5044582;28;20422;-83
2021/10/14 10:58:57;;;;;;;6.15;4.90;;;13.80;99.90;;;;;;5047190;28;20372;-83
2021/10/14 11:01:23;;;;;;;6.10;5.50;;;13.80;99.90;;;;;;5047960;28;20437;-85
2021/10/14 11:03:58;;;;;;;6.60;5.82;;;13.80;99.90;;;;;;5047789;28;20462;-82
2021/10/14 11:06:25;;;;;;;8.63;7.63;;;13.90;99.90;;;;;;5046769;28;20463;-83
2021/10/14 11:08:52;;;;;;;9.93;8.20;;;13.90;99.90;;;;;;5047037;28;20467;-83
2021/10/14 11:11:21;;;;;;;12.27;9.25;;;13.90;99.90;;;;;;5045958;28;21274;-82
2021/10/14 11:13:53;;;;;;;10.25;9.15;;;14.00;99.90;;;;;;5045803;28;20380;-81
2021/10/14 11:16:20;;;;;;;11.95;10.20;;;14.00;99.90;;;;;;5045674;28;20933;-83
2021/10/14 11:18:48;;;;;;;14.27;11.13;;;13.90;99.90;;;;;;5046894;28;20884;-83
2021/10/14 11:21:18;;;;;;;15.70;12.43;;;13.90;99.90;;;;;;5045404;28;20384;-83
2021/10/14 11:23:51;;;;;;;14.75;12.60;;;13.80;99.90;;;;;;5045440;28;20426;-84
2021/10/14 11:26:39;;;;;;;17.73;13.88;;;13.70;99.90;;;;;;5045625;28;20465;-83
2021/10/14 11:29:18;;;;;;;15.68;12.90;;;13.70;99.90;;;;;;5042429;28;20392;-82
2021/10/14 11:31:54;;;;;;;17.48;13.52;;;13.70;99.90;;;;;;5047189;28;20753;-84
2021/10/14 11:34:23;;;;;;;17.88;13.50;;;13.70;99.90;;;;;;5051357;28;20522;-84
2021/10/14 11:36:59;;;;;;;17.13;13.57;;;13.70;99.90;;;;;;5049686;28;20474;-83
2021/10/14 11:39:48;;;;;;;19.13;14.23;;;13.90;99.90;;;;;;5050477;28;21429;-83
2021/10/14 11:42:16;;;;;;;21.77;16.23;;;13.80;99.90;;;;;;5049292;28;20380;-84
2021/10/14 11:44:44;;;;;;;18.73;15.30;;;13.70;99.90;;;;;;5047065;28;20395;-84
2021/10/14 11:47:14;;;;;;;19.42;15.50;;;13.80;99.90;;;;;;5048547;28;20402;-84
2021/10/14 11:49:41;;;;;;;20.67;14.75;;;13.80;99.90;;;;;;5047901;28;20364;-85
2021/10/14 11:52:08;;;;;;;17.33;14.60;;;13.90;99.90;;;;;;5046894;28;20402;-83
2021/10/14 11:54:35;;;;;;;19.23;15.03;;;14.00;99.90;;;;;;5048234;28;20372;-84
2021/10/14 11:57:03;;;;;;;19.63;14.48;;;13.90;99.90;;;;;;5047069;28;20404;-84
2021/10/14 11:59:30;;;;;;;17.63;14.47;;;14.10;99.90;;;;;;5047272;28;20911;-85
2021/10/14 12:02:23;;;;;;;18.48;14.23;;;14.30;99.90;;;;;;5048386;28;20395;-84
2021/10/14 12:04:51;;;;;;;16.23;13.13;;;14.60;99.90;;;;;;5046299;28;20402;-85
2021/10/14 12:07:18;;;;;;;14.85;12.23;;;14.80;99.90;;;;;;5047125;28;20897;-84
2021/10/14 12:09:44;;;;;;;16.33;12.88;;;15.00;99.90;;;;;;5048023;28;20383;-84
2021/10/14 12:12:15;;;;;;;15.60;12.82;;;15.10;99.90;;;;;;5048185;28;20404;-83
2021/10/14 12:14:40;;;;;;;17.88;12.52;;;15.20;99.90;;;;;;5048086;28;20869;-85
2021/10/14 12:17:18;;;;;;;13.23;11.67;;;15.20;99.90;;;;;;5048203;28;20412;-85
2021/10/14 12:19:49;;;;;;;14.27;11.17;;;15.20;99.90;;;;;;5046608;28;20964;-84
2021/10/14 12:22:23;;;;;;;13.05;11.00;;;15.40;99.90;;;;;;5047675;28;20383;-85
2021/10/14 12:25:00;;;;;;;14.93;11.30;;;15.60;99.90;;;;;;5046484;28;20873;-85
2021/10/14 12:27:58;;;;;;;12.80;10.40;;;15.80;99.90;;;;;;5047852;28;20402;-85
2021/10/14 12:30:37;;;;;;;11.23;9.70;;;15.70;99.90;;;;;;5043788;28;20383;-84
2021/10/14 12:33:12;;;;;;;11.00;9.13;;;15.80;99.90;;;;;;5048301;28;21351;-85
2021/10/14 12:36:01;;;;;;;10.38;8.40;;;16.00;99.90;;;;;;5046156;28;20550;-85
2021/10/14 12:38:39;;;;;;;12.03;9.27;;;16.10;99.90;;;;;;5046577;28;20391;-86
2021/10/14 12:41:06;;;;;;;10.50;9.05;;;15.90;99.90;;;;;;5045005;28;20383;-84
2021/10/14 12:43:45;;;;;;;10.60;9.50;;;15.70;99.90;;;;;;5049371;28;20372;-85